sensor_id;sensor_type;location;lat;lon;timestamp;P1;durP1;ratioP1;P2;durP2;ratioP2
55710;SDS011;41612;51.994;5.880;2022-08-19T00:01:35;4.45;;;4.05;;
55710;SDS011;41612;51.994;5.880;2022-08-19T00:04:02;4.03;;;3.63;;
55710;SDS011;41612;51.994;5.880;2022-08-19T00:06:30;4.00;;;3.08;;
55710;SDS011;41612;51.994;5.880;2022-08-19T00:08:56;3.30;;;2.78;;
55710;SDS011;41612;51.994;5.880;2022-08-19T00:11:23;2.75;;;2.38;;
55710;SDS011;41612;51.994;5.880;2022-08-19T00:13:49;3.42;;;2.80;;
55710;SDS011;41612;51.994;5.880;2022-08-19T00:16:16;4.50;;;3.22;;
55710;SDS011;41612;51.994;5.880;2022-08-19T00:18:45;3.63;;;2.60;;
55710;SDS011;41612;51.994;5.880;2022-08-19T00:21:12;4.82;;;2.95;;
55710;SDS011;41612;51.994;5.880;2022-08-19T00:23:39;4.10;;;2.72;;
55710;SDS011;41612;51.994;5.880;2022-08-19T00:26:05;3.75;;;3.13;;
55710;SDS011;41612;51.994;5.880;2022-08-19T00:28:32;4.43;;;3.50;;
55710;SDS011;41612;51.994;5.880;2022-08-19T00:31:01;3.95;;;3.40;;
55710;SDS011;41612;51.994;5.880;2022-08-19T00:33:30;3.95;;;2.88;;
55710;SDS011;41612;51.994;5.880;2022-08-19T00:36:03;3.47;;;2.95;;
55710;SDS011;41612;51.994;5.880;2022-08-19T00:38:31;4.60;;;3.00;;
55710;SDS011;41612;51.994;5.880;2022-08-19T00:40:57;5.20;;;3.40;;
55710;SDS011;41612;51.994;5.880;2022-08-19T00:43:24;4.47;;;3.35;;
55710;SDS011;41612;51.994;5.880;2022-08-19T00:45:52;5.00;;;3.53;;
55710;SDS011;41612;51.994;5.880;2022-08-19T00:48:18;4.93;;;3.60;;
55710;SDS011;41612;51.994;5.880;2022-08-19T00:50:44;4.38;;;3.55;;
55710;SDS011;41612;51.994;5.880;2022-08-19T00:53:12;4.03;;;3.35;;
55710;SDS011;41612;51.994;5.880;2022-08-19T00:55:40;6.10;;;3.50;;
55710;SDS011;41612;51.994;5.880;2022-08-19T00:58:22;5.32;;;3.70;;
55710;SDS011;41612;51.994;5.880;2022-08-19T01:00:55;4.82;;;3.63;;
55710;SDS011;41612;51.994;5.880;2022-08-19T01:03:21;4.05;;;3.65;;
55710;SDS011;41612;51.994;5.880;2022-08-19T01:05:47;4.65;;;3.83;;
55710;SDS011;41612;51.994;5.880;2022-08-19T01:08:16;4.03;;;3.63;;
55710;SDS011;41612;51.994;5.880;2022-08-19T01:10:45;3.92;;;3.40;;
55710;SDS011;41612;51.994;5.880;2022-08-19T01:13:15;4.10;;;3.70;;
55710;SDS011;41612;51.994;5.880;2022-08-19T01:15:48;4.75;;;3.50;;
55710;SDS011;41612;51.994;5.880;2022-08-19T01:18:17;3.40;;;2.92;;
55710;SDS011;41612;51.994;5.880;2022-08-19T01:20:44;4.47;;;3.65;;
55710;SDS011;41612;51.994;5.880;2022-08-19T01:23:11;5.03;;;3.85;;
55710;SDS011;41612;51.994;5.880;2022-08-19T01:25:41;4.10;;;3.70;;
55710;SDS011;41612;51.994;5.880;2022-08-19T01:28:22;4.18;;;3.70;;
55710;SDS011;41612;51.994;5.880;2022-08-19T01:30:52;4.82;;;3.70;;
55710;SDS011;41612;51.994;5.880;2022-08-19T01:33:19;6.03;;;3.70;;
55710;SDS011;41612;51.994;5.880;2022-08-19T01:35:45;3.47;;;3.17;;
55710;SDS011;41612;51.994;5.880;2022-08-19T01:38:24;3.50;;;3.20;;
55710;SDS011;41612;51.994;5.880;2022-08-19T01:40:51;4.03;;;3.55;;
55710;SDS011;41612;51.994;5.880;2022-08-19T01:43:17;4.85;;;3.42;;
55710;SDS011;41612;51.994;5.880;2022-08-19T01:45:45;3.65;;;3.05;;
55710;SDS011;41612;51.994;5.880;2022-08-19T01:48:11;5.13;;;4.15;;
55710;SDS011;41612;51.994;5.880;2022-08-19T01:50:37;4.13;;;3.58;;
55710;SDS011;41612;51.994;5.880;2022-08-19T01:53:04;4.18;;;3.38;;
55710;SDS011;41612;51.994;5.880;2022-08-19T01:55:32;5.15;;;3.45;;
55710;SDS011;41612;51.994;5.880;2022-08-19T01:58:00;3.85;;;3.22;;
55710;SDS011;41612;51.994;5.880;2022-08-19T02:00:32;5.50;;;3.50;;
55710;SDS011;41612;51.994;5.880;2022-08-19T02:02:59;4.05;;;3.60;;
55710;SDS011;41612;51.994;5.880;2022-08-19T02:05:26;4.00;;;3.55;;
55710;SDS011;41612;51.994;5.880;2022-08-19T02:07:54;3.95;;;3.17;;
55710;SDS011;41612;51.994;5.880;2022-08-19T02:10:24;3.90;;;3.50;;
55710;SDS011;41612;51.994;5.880;2022-08-19T02:12:50;4.35;;;3.95;;
55710;SDS011;41612;51.994;5.880;2022-08-19T02:15:16;3.70;;;3.15;;
55710;SDS011;41612;51.994;5.880;2022-08-19T02:17:44;4.63;;;3.75;;
55710;SDS011;41612;51.994;5.880;2022-08-19T02:20:11;4.85;;;3.60;;
55710;SDS011;41612;51.994;5.880;2022-08-19T02:22:38;4.00;;;3.20;;
55710;SDS011;41612;51.994;5.880;2022-08-19T02:25:06;4.15;;;2.90;;
55710;SDS011;41612;51.994;5.880;2022-08-19T02:27:32;3.00;;;2.55;;
55710;SDS011;41612;51.994;5.880;2022-08-19T02:29:59;4.13;;;2.70;;
55710;SDS011;41612;51.994;5.880;2022-08-19T02:32:26;3.65;;;2.92;;
55710;SDS011;41612;51.994;5.880;2022-08-19T02:34:52;4.15;;;3.22;;
55710;SDS011;41612;51.994;5.880;2022-08-19T02:37:18;4.35;;;3.25;;
55710;SDS011;41612;51.994;5.880;2022-08-19T02:40:02;3.75;;;2.90;;
55710;SDS011;41612;51.994;5.880;2022-08-19T02:42:28;4.28;;;3.10;;
55710;SDS011;41612;51.994;5.880;2022-08-19T02:44:55;4.47;;;3.63;;
55710;SDS011;41612;51.994;5.880;2022-08-19T02:47:21;3.40;;;2.53;;
55710;SDS011;41612;51.994;5.880;2022-08-19T02:49:46;3.58;;;2.90;;
55710;SDS011;41612;51.994;5.880;2022-08-19T02:52:14;4.03;;;2.97;;
55710;SDS011;41612;51.994;5.880;2022-08-19T02:54:40;4.57;;;3.15;;
55710;SDS011;41612;51.994;5.880;2022-08-19T02:57:06;4.75;;;3.40;;
55710;SDS011;41612;51.994;5.880;2022-08-19T02:59:33;4.82;;;3.90;;
55710;SDS011;41612;51.994;5.880;2022-08-19T03:01:59;5.07;;;3.60;;
55710;SDS011;41612;51.994;5.880;2022-08-19T03:04:25;4.15;;;3.55;;
55710;SDS011;41612;51.994;5.880;2022-08-19T03:06:51;5.43;;;3.75;;
55710;SDS011;41612;51.994;5.880;2022-08-19T03:09:18;4.38;;;3.42;;
55710;SDS011;41612;51.994;5.880;2022-08-19T03:11:45;4.10;;;3.10;;
55710;SDS011;41612;51.994;5.880;2022-08-19T03:14:11;4.30;;;3.65;;
55710;SDS011;41612;51.994;5.880;2022-08-19T03:16:43;3.65;;;3.30;;
55710;SDS011;41612;51.994;5.880;2022-08-19T03:19:11;4.03;;;3.50;;
55710;SDS011;41612;51.994;5.880;2022-08-19T03:21:38;4.90;;;4.32;;
55710;SDS011;41612;51.994;5.880;2022-08-19T03:24:05;8.57;;;7.78;;
55710;SDS011;41612;51.994;5.880;2022-08-19T03:26:32;7.28;;;6.30;;
55710;SDS011;41612;51.994;5.880;2022-08-19T03:29:01;6.43;;;5.70;;
55710;SDS011;41612;51.994;5.880;2022-08-19T03:31:29;6.95;;;5.85;;
55710;SDS011;41612;51.994;5.880;2022-08-19T03:33:56;4.70;;;4.25;;
55710;SDS011;41612;51.994;5.880;2022-08-19T03:36:23;8.35;;;5.90;;
55710;SDS011;41612;51.994;5.880;2022-08-19T03:38:51;8.98;;;7.10;;
55710;SDS011;41612;51.994;5.880;2022-08-19T03:41:30;5.93;;;5.30;;
55710;SDS011;41612;51.994;5.880;2022-08-19T03:43:57;7.28;;;5.40;;
55710;SDS011;41612;51.994;5.880;2022-08-19T03:46:27;5.20;;;4.53;;
55710;SDS011;41612;51.994;5.880;2022-08-19T03:48:56;4.90;;;4.40;;
55710;SDS011;41612;51.994;5.880;2022-08-19T03:51:27;5.10;;;4.28;;
55710;SDS011;41612;51.994;5.880;2022-08-19T03:53:56;4.65;;;4.15;;
55710;SDS011;41612;51.994;5.880;2022-08-19T03:56:24;5.13;;;4.10;;
55710;SDS011;41612;51.994;5.880;2022-08-19T03:58:52;7.60;;;4.60;;
55710;SDS011;41612;51.994;5.880;2022-08-19T04:01:21;4.82;;;4.32;;
55710;SDS011;41612;51.994;5.880;2022-08-19T04:03:48;5.55;;;4.07;;
55710;SDS011;41612;51.994;5.880;2022-08-19T04:08:43;5.53;;;4.00;;
55710;SDS011;41612;51.994;5.880;2022-08-19T04:11:10;7.45;;;6.53;;
55710;SDS011;41612;51.994;5.880;2022-08-19T04:13:39;5.03;;;4.32;;
55710;SDS011;41612;51.994;5.880;2022-08-19T04:16:07;5.53;;;5.00;;
55710;SDS011;41612;51.994;5.880;2022-08-19T04:18:35;5.00;;;4.10;;
55710;SDS011;41612;51.994;5.880;2022-08-19T04:21:02;5.25;;;4.53;;
55710;SDS011;41612;51.994;5.880;2022-08-19T04:23:29;5.18;;;4.68;;
55710;SDS011;41612;51.994;5.880;2022-08-19T04:25:55;11.75;;;10.07;;
55710;SDS011;41612;51.994;5.880;2022-08-19T04:28:23;8.25;;;7.43;;
55710;SDS011;41612;51.994;5.880;2022-08-19T04:30:51;6.43;;;5.45;;
55710;SDS011;41612;51.994;5.880;2022-08-19T04:33:18;4.93;;;4.43;;
55710;SDS011;41612;51.994;5.880;2022-08-19T04:35:47;5.32;;;4.47;;
55710;SDS011;41612;51.994;5.880;2022-08-19T04:38:14;4.40;;;3.92;;
55710;SDS011;41612;51.994;5.880;2022-08-19T04:40:48;4.93;;;4.30;;
55710;SDS011;41612;51.994;5.880;2022-08-19T04:43:35;5.57;;;4.43;;
55710;SDS011;41612;51.994;5.880;2022-08-19T04:46:10;6.25;;;4.38;;
55710;SDS011;41612;51.994;5.880;2022-08-19T04:48:37;3.92;;;3.42;;
55710;SDS011;41612;51.994;5.880;2022-08-19T04:51:09;4.40;;;4.00;;
55710;SDS011;41612;51.994;5.880;2022-08-19T04:53:38;5.18;;;3.67;;
55710;SDS011;41612;51.994;5.880;2022-08-19T04:56:09;4.97;;;3.95;;
55710;SDS011;41612;51.994;5.880;2022-08-19T04:58:40;5.18;;;4.13;;
55710;SDS011;41612;51.994;5.880;2022-08-19T05:01:23;8.18;;;6.60;;
55710;SDS011;41612;51.994;5.880;2022-08-19T05:03:53;7.15;;;6.03;;
55710;SDS011;41612;51.994;5.880;2022-08-19T05:06:21;6.20;;;5.00;;
55710;SDS011;41612;51.994;5.880;2022-08-19T05:08:47;5.97;;;4.95;;
55710;SDS011;41612;51.994;5.880;2022-08-19T05:11:20;6.93;;;5.05;;
55710;SDS011;41612;51.994;5.880;2022-08-19T05:13:49;4.72;;;4.25;;
55710;SDS011;41612;51.994;5.880;2022-08-19T05:16:20;7.28;;;5.72;;
55710;SDS011;41612;51.994;5.880;2022-08-19T05:18:46;9.27;;;7.75;;
55710;SDS011;41612;51.994;5.880;2022-08-19T05:21:31;10.52;;;8.60;;
55710;SDS011;41612;51.994;5.880;2022-08-19T05:24:17;7.85;;;7.05;;
55710;SDS011;41612;51.994;5.880;2022-08-19T05:26:44;10.30;;;8.70;;
55710;SDS011;41612;51.994;5.880;2022-08-19T05:29:15;11.27;;;10.07;;
55710;SDS011;41612;51.994;5.880;2022-08-19T05:31:44;12.30;;;10.80;;
55710;SDS011;41612;51.994;5.880;2022-08-19T05:34:10;15.70;;;12.93;;
55710;SDS011;41612;51.994;5.880;2022-08-19T05:36:38;10.55;;;9.45;;
55710;SDS011;41612;51.994;5.880;2022-08-19T05:39:10;21.55;;;19.02;;
55710;SDS011;41612;51.994;5.880;2022-08-19T05:41:58;19.03;;;14.33;;
55710;SDS011;41612;51.994;5.880;2022-08-19T05:44:30;13.90;;;12.35;;
55710;SDS011;41612;51.994;5.880;2022-08-19T05:47:01;12.25;;;10.93;;
55710;SDS011;41612;51.994;5.880;2022-08-19T05:49:29;19.40;;;17.30;;
55710;SDS011;41612;51.994;5.880;2022-08-19T05:51:57;17.50;;;15.65;;
55710;SDS011;41612;51.994;5.880;2022-08-19T05:54:24;15.25;;;13.27;;
55710;SDS011;41612;51.994;5.880;2022-08-19T05:56:51;15.38;;;13.10;;
55710;SDS011;41612;51.994;5.880;2022-08-19T05:59:30;18.13;;;16.17;;
55710;SDS011;41612;51.994;5.880;2022-08-19T06:02:05;22.20;;;18.77;;
55710;SDS011;41612;51.994;5.880;2022-08-19T06:04:32;25.27;;;21.95;;
55710;SDS011;41612;51.994;5.880;2022-08-19T06:06:58;28.58;;;24.00;;
55710;SDS011;41612;51.994;5.880;2022-08-19T06:09:24;24.65;;;22.05;;
55710;SDS011;41612;51.994;5.880;2022-08-19T06:11:51;21.23;;;16.95;;
55710;SDS011;41612;51.994;5.880;2022-08-19T06:14:34;26.98;;;22.55;;
55710;SDS011;41612;51.994;5.880;2022-08-19T06:17:03;24.00;;;20.08;;
55710;SDS011;41612;51.994;5.880;2022-08-19T06:19:29;22.67;;;19.58;;
55710;SDS011;41612;51.994;5.880;2022-08-19T06:21:56;16.88;;;14.35;;
55710;SDS011;41612;51.994;5.880;2022-08-19T06:24:25;22.00;;;19.58;;
55710;SDS011;41612;51.994;5.880;2022-08-19T06:26:53;23.48;;;21.08;;
55710;SDS011;41612;51.994;5.880;2022-08-19T06:29:35;22.38;;;19.80;;
55710;SDS011;41612;51.994;5.880;2022-08-19T06:32:01;24.00;;;20.50;;
55710;SDS011;41612;51.994;5.880;2022-08-19T06:34:29;26.38;;;21.98;;
55710;SDS011;41612;51.994;5.880;2022-08-19T06:36:57;30.35;;;25.83;;
55710;SDS011;41612;51.994;5.880;2022-08-19T06:39:33;26.33;;;22.08;;
55710;SDS011;41612;51.994;5.880;2022-08-19T06:42:03;12.13;;;10.88;;
55710;SDS011;41612;51.994;5.880;2022-08-19T06:44:35;13.60;;;12.18;;
55710;SDS011;41612;51.994;5.880;2022-08-19T06:47:03;12.57;;;10.25;;
55710;SDS011;41612;51.994;5.880;2022-08-19T06:49:30;24.58;;;18.45;;
55710;SDS011;41612;51.994;5.880;2022-08-19T06:51:56;36.28;;;28.50;;
55710;SDS011;41612;51.994;5.880;2022-08-19T06:54:23;25.73;;;19.00;;
55710;SDS011;41612;51.994;5.880;2022-08-19T06:56:49;32.13;;;23.90;;
55710;SDS011;41612;51.994;5.880;2022-08-19T06:59:16;36.92;;;28.63;;
55710;SDS011;41612;51.994;5.880;2022-08-19T07:01:44;38.08;;;25.60;;
55710;SDS011;41612;51.994;5.880;2022-08-19T07:04:16;39.10;;;25.23;;
55710;SDS011;41612;51.994;5.880;2022-08-19T07:06:44;18.30;;;15.13;;
55710;SDS011;41612;51.994;5.880;2022-08-19T07:09:10;38.92;;;24.27;;
55710;SDS011;41612;51.994;5.880;2022-08-19T07:11:38;42.13;;;30.73;;
55710;SDS011;41612;51.994;5.880;2022-08-19T07:14:03;26.65;;;19.70;;
55710;SDS011;41612;51.994;5.880;2022-08-19T07:16:31;52.55;;;34.67;;
55710;SDS011;41612;51.994;5.880;2022-08-19T07:18:57;47.75;;;32.35;;
55710;SDS011;41612;51.994;5.880;2022-08-19T07:21:27;56.67;;;38.15;;
55710;SDS011;41612;51.994;5.880;2022-08-19T07:23:54;30.75;;;22.08;;
55710;SDS011;41612;51.994;5.880;2022-08-19T07:26:25;68.60;;;43.45;;
55710;SDS011;41612;51.994;5.880;2022-08-19T07:28:53;67.97;;;43.95;;
55710;SDS011;41612;51.994;5.880;2022-08-19T07:31:21;61.30;;;41.30;;
55710;SDS011;41612;51.994;5.880;2022-08-19T07:33:50;61.53;;;41.47;;
55710;SDS011;41612;51.994;5.880;2022-08-19T07:36:19;67.88;;;45.47;;
55710;SDS011;41612;51.994;5.880;2022-08-19T07:38:48;40.20;;;28.52;;
55710;SDS011;41612;51.994;5.880;2022-08-19T07:41:16;67.93;;;45.97;;
55710;SDS011;41612;51.994;5.880;2022-08-19T07:43:44;72.38;;;47.83;;
55710;SDS011;41612;51.994;5.880;2022-08-19T07:46:11;75.20;;;50.72;;
55710;SDS011;41612;51.994;5.880;2022-08-19T07:48:38;54.47;;;40.72;;
55710;SDS011;41612;51.994;5.880;2022-08-19T07:51:06;61.67;;;42.08;;
55710;SDS011;41612;51.994;5.880;2022-08-19T07:53:34;60.25;;;43.13;;
55710;SDS011;41612;51.994;5.880;2022-08-19T07:56:00;58.60;;;41.60;;
55710;SDS011;41612;51.994;5.880;2022-08-19T07:58:36;68.82;;;43.60;;
55710;SDS011;41612;51.994;5.880;2022-08-19T08:01:07;51.97;;;37.67;;
55710;SDS011;41612;51.994;5.880;2022-08-19T08:03:37;54.08;;;40.28;;
55710;SDS011;41612;51.994;5.880;2022-08-19T08:06:22;47.13;;;35.25;;
55710;SDS011;41612;51.994;5.880;2022-08-19T08:09:07;64.00;;;48.67;;
55710;SDS011;41612;51.994;5.880;2022-08-19T08:11:40;67.22;;;52.85;;
55710;SDS011;41612;51.994;5.880;2022-08-19T08:14:08;59.95;;;45.85;;
55710;SDS011;41612;51.994;5.880;2022-08-19T08:16:37;92.03;;;41.13;;
55710;SDS011;41612;51.994;5.880;2022-08-19T08:19:04;63.38;;;50.53;;
55710;SDS011;41612;51.994;5.880;2022-08-19T08:21:31;51.22;;;36.33;;
55710;SDS011;41612;51.994;5.880;2022-08-19T08:23:57;63.55;;;48.85;;
55710;SDS011;41612;51.994;5.880;2022-08-19T08:26:23;64.40;;;50.22;;
55710;SDS011;41612;51.994;5.880;2022-08-19T08:28:50;56.65;;;43.85;;
55710;SDS011;41612;51.994;5.880;2022-08-19T08:31:17;60.60;;;44.28;;
55710;SDS011;41612;51.994;5.880;2022-08-19T08:33:44;57.10;;;43.95;;
55710;SDS011;41612;51.994;5.880;2022-08-19T08:36:11;44.10;;;33.38;;
55710;SDS011;41612;51.994;5.880;2022-08-19T08:38:39;57.15;;;43.40;;
55710;SDS011;41612;51.994;5.880;2022-08-19T08:41:09;59.50;;;45.88;;
55710;SDS011;41612;51.994;5.880;2022-08-19T08:43:44;48.63;;;40.30;;
55710;SDS011;41612;51.994;5.880;2022-08-19T08:46:13;57.58;;;45.00;;
55710;SDS011;41612;51.994;5.880;2022-08-19T08:48:45;52.22;;;37.67;;
55710;SDS011;41612;51.994;5.880;2022-08-19T08:51:29;47.75;;;37.60;;
55710;SDS011;41612;51.994;5.880;2022-08-19T08:54:00;38.25;;;31.08;;
55710;SDS011;41612;51.994;5.880;2022-08-19T08:56:29;43.03;;;31.70;;
55710;SDS011;41612;51.994;5.880;2022-08-19T08:59:02;44.25;;;33.95;;
55710;SDS011;41612;51.994;5.880;2022-08-19T09:01:33;46.17;;;34.15;;
55710;SDS011;41612;51.994;5.880;2022-08-19T09:03:59;47.33;;;36.88;;
55710;SDS011;41612;51.994;5.880;2022-08-19T09:17:15;49.35;;;35.90;;
55710;SDS011;41612;51.994;5.880;2022-08-19T09:22:47;36.58;;;27.60;;
55710;SDS011;41612;51.994;5.880;2022-08-19T09:25:15;22.60;;;17.92;;
55710;SDS011;41612;51.994;5.880;2022-08-19T09:27:43;35.72;;;27.55;;
55710;SDS011;41612;51.994;5.880;2022-08-19T09:30:17;26.60;;;21.25;;
55710;SDS011;41612;51.994;5.880;2022-08-19T09:32:46;45.25;;;33.03;;
55710;SDS011;41612;51.994;5.880;2022-08-19T09:35:12;37.65;;;30.90;;
55710;SDS011;41612;51.994;5.880;2022-08-19T09:37:38;38.35;;;29.85;;
55710;SDS011;41612;51.994;5.880;2022-08-19T09:40:04;37.67;;;29.65;;
55710;SDS011;41612;51.994;5.880;2022-08-19T09:42:32;38.53;;;29.70;;
55710;SDS011;41612;51.994;5.880;2022-08-19T09:44:58;34.17;;;27.23;;
55710;SDS011;41612;51.994;5.880;2022-08-19T09:47:25;30.42;;;25.88;;
55710;SDS011;41612;51.994;5.880;2022-08-19T09:49:50;32.03;;;25.45;;
55710;SDS011;41612;51.994;5.880;2022-08-19T09:52:16;29.98;;;23.63;;
55710;SDS011;41612;51.994;5.880;2022-08-19T09:54:43;23.23;;;18.73;;
55710;SDS011;41612;51.994;5.880;2022-08-19T09:57:09;22.00;;;17.25;;
55710;SDS011;41612;51.994;5.880;2022-08-19T09:59:35;32.60;;;25.13;;
55710;SDS011;41612;51.994;5.880;2022-08-19T10:02:00;35.78;;;24.98;;
55710;SDS011;41612;51.994;5.880;2022-08-19T10:04:30;30.52;;;22.52;;
55710;SDS011;41612;51.994;5.880;2022-08-19T10:07:14;31.60;;;25.15;;
55710;SDS011;41612;51.994;5.880;2022-08-19T10:09:40;32.15;;;23.95;;
55710;SDS011;41612;51.994;5.880;2022-08-19T10:12:06;33.88;;;24.35;;
55710;SDS011;41612;51.994;5.880;2022-08-19T10:14:32;36.55;;;28.02;;
55710;SDS011;41612;51.994;5.880;2022-08-19T10:16:59;28.55;;;22.10;;
55710;SDS011;41612;51.994;5.880;2022-08-19T10:19:25;34.38;;;24.20;;
55710;SDS011;41612;51.994;5.880;2022-08-19T10:21:53;28.48;;;20.58;;
55710;SDS011;41612;51.994;5.880;2022-08-19T10:24:19;26.23;;;20.42;;
55710;SDS011;41612;51.994;5.880;2022-08-19T10:26:45;26.08;;;20.42;;
55710;SDS011;41612;51.994;5.880;2022-08-19T10:29:19;29.63;;;22.67;;
55710;SDS011;41612;51.994;5.880;2022-08-19T10:31:45;24.90;;;20.92;;
55710;SDS011;41612;51.994;5.880;2022-08-19T10:34:12;22.05;;;17.75;;
55710;SDS011;41612;51.994;5.880;2022-08-19T10:36:38;29.85;;;22.58;;
55710;SDS011;41612;51.994;5.880;2022-08-19T10:39:05;26.13;;;20.90;;
55710;SDS011;41612;51.994;5.880;2022-08-19T10:41:34;25.48;;;21.80;;
55710;SDS011;41612;51.994;5.880;2022-08-19T10:44:04;27.90;;;21.75;;
55710;SDS011;41612;51.994;5.880;2022-08-19T10:46:34;31.15;;;22.38;;
55710;SDS011;41612;51.994;5.880;2022-08-19T10:49:04;21.30;;;17.67;;
55710;SDS011;41612;51.994;5.880;2022-08-19T10:51:35;25.58;;;19.45;;
55710;SDS011;41612;51.994;5.880;2022-08-19T10:54:20;20.73;;;15.02;;
55710;SDS011;41612;51.994;5.880;2022-08-19T10:56:46;17.63;;;13.43;;
55710;SDS011;41612;51.994;5.880;2022-08-19T10:59:21;22.88;;;16.27;;
55710;SDS011;41612;51.994;5.880;2022-08-19T11:01:51;17.00;;;13.25;;
55710;SDS011;41612;51.994;5.880;2022-08-19T11:04:17;17.45;;;14.50;;
55710;SDS011;41612;51.994;5.880;2022-08-19T11:06:47;23.25;;;18.52;;
55710;SDS011;41612;51.994;5.880;2022-08-19T11:09:19;25.77;;;19.60;;
55710;SDS011;41612;51.994;5.880;2022-08-19T11:11:47;22.23;;;18.23;;
55710;SDS011;41612;51.994;5.880;2022-08-19T11:14:15;25.77;;;18.38;;
55710;SDS011;41612;51.994;5.880;2022-08-19T11:16:43;23.95;;;16.30;;
55710;SDS011;41612;51.994;5.880;2022-08-19T11:19:10;23.58;;;18.20;;
55710;SDS011;41612;51.994;5.880;2022-08-19T11:21:42;26.92;;;18.25;;
55710;SDS011;41612;51.994;5.880;2022-08-19T11:24:10;17.15;;;13.43;;
55710;SDS011;41612;51.994;5.880;2022-08-19T11:26:38;22.05;;;16.67;;
55710;SDS011;41612;51.994;5.880;2022-08-19T11:29:21;24.08;;;18.95;;
55710;SDS011;41612;51.994;5.880;2022-08-19T11:31:50;15.80;;;11.13;;
55710;SDS011;41612;51.994;5.880;2022-08-19T11:34:20;21.90;;;17.15;;
55710;SDS011;41612;51.994;5.880;2022-08-19T11:36:48;21.50;;;16.17;;
55710;SDS011;41612;51.994;5.880;2022-08-19T11:39:16;18.05;;;13.80;;
55710;SDS011;41612;51.994;5.880;2022-08-19T11:41:43;21.70;;;16.88;;
55710;SDS011;41612;51.994;5.880;2022-08-19T11:44:12;22.38;;;17.40;;
55710;SDS011;41612;51.994;5.880;2022-08-19T11:46:58;14.90;;;11.18;;
55710;SDS011;41612;51.994;5.880;2022-08-19T11:49:25;15.65;;;9.95;;
55710;SDS011;41612;51.994;5.880;2022-08-19T11:51:51;10.90;;;8.05;;
55710;SDS011;41612;51.994;5.880;2022-08-19T11:54:18;10.00;;;8.90;;
55710;SDS011;41612;51.994;5.880;2022-08-19T11:56:44;8.00;;;7.07;;
55710;SDS011;41612;51.994;5.880;2022-08-19T11:59:20;16.92;;;13.20;;
55710;SDS011;41612;51.994;5.880;2022-08-19T12:01:55;13.70;;;10.95;;
55710;SDS011;41612;51.994;5.880;2022-08-19T12:04:22;18.58;;;14.23;;
55710;SDS011;41612;51.994;5.880;2022-08-19T12:06:47;14.75;;;12.07;;
55710;SDS011;41612;51.994;5.880;2022-08-19T12:09:14;14.55;;;11.20;;
55710;SDS011;41612;51.994;5.880;2022-08-19T12:11:41;8.77;;;7.00;;
55710;SDS011;41612;51.994;5.880;2022-08-19T12:14:13;17.63;;;12.32;;
55710;SDS011;41612;51.994;5.880;2022-08-19T12:16:39;13.35;;;11.35;;
55710;SDS011;41612;51.994;5.880;2022-08-19T12:19:19;11.52;;;8.85;;
55710;SDS011;41612;51.994;5.880;2022-08-19T12:21:45;14.85;;;11.95;;
55710;SDS011;41612;51.994;5.880;2022-08-19T12:24:11;11.52;;;9.27;;
55710;SDS011;41612;51.994;5.880;2022-08-19T12:26:37;13.07;;;10.02;;
55710;SDS011;41612;51.994;5.880;2022-08-19T12:29:12;17.08;;;12.48;;
55710;SDS011;41612;51.994;5.880;2022-08-19T12:31:41;14.30;;;12.80;;
55710;SDS011;41612;51.994;5.880;2022-08-19T12:34:07;19.13;;;15.43;;
55710;SDS011;41612;51.994;5.880;2022-08-19T12:36:34;9.40;;;6.30;;
55710;SDS011;41612;51.994;5.880;2022-08-19T12:39:00;13.40;;;10.25;;
55710;SDS011;41612;51.994;5.880;2022-08-19T12:41:26;9.30;;;6.82;;
55710;SDS011;41612;51.994;5.880;2022-08-19T12:46:37;14.68;;;10.75;;
55710;SDS011;41612;51.994;5.880;2022-08-19T12:49:04;12.00;;;8.57;;
55710;SDS011;41612;51.994;5.880;2022-08-19T12:51:29;14.95;;;11.43;;
55710;SDS011;41612;51.994;5.880;2022-08-19T12:53:56;12.25;;;10.15;;
55710;SDS011;41612;51.994;5.880;2022-08-19T12:56:22;9.77;;;6.50;;
55710;SDS011;41612;51.994;5.880;2022-08-19T12:58:53;12.50;;;11.20;;
55710;SDS011;41612;51.994;5.880;2022-08-19T13:01:19;13.05;;;11.65;;
55710;SDS011;41612;51.994;5.880;2022-08-19T13:03:45;15.38;;;9.82;;
55710;SDS011;41612;51.994;5.880;2022-08-19T13:06:12;6.25;;;5.40;;
55710;SDS011;41612;51.994;5.880;2022-08-19T13:08:38;9.68;;;5.80;;
55710;SDS011;41612;51.994;5.880;2022-08-19T13:11:08;9.30;;;8.30;;
55710;SDS011;41612;51.994;5.880;2022-08-19T13:13:49;15.52;;;12.60;;
55710;SDS011;41612;51.994;5.880;2022-08-19T13:16:16;10.50;;;9.32;;
55710;SDS011;41612;51.994;5.880;2022-08-19T13:18:43;14.18;;;11.80;;
55710;SDS011;41612;51.994;5.880;2022-08-19T13:21:12;13.05;;;11.02;;
55710;SDS011;41612;51.994;5.880;2022-08-19T13:23:38;13.75;;;12.35;;
55710;SDS011;41612;51.994;5.880;2022-08-19T13:26:05;13.18;;;9.65;;
55710;SDS011;41612;51.994;5.880;2022-08-19T13:28:32;13.00;;;10.20;;
55710;SDS011;41612;51.994;5.880;2022-08-19T13:31:17;7.38;;;6.68;;
55710;SDS011;41612;51.994;5.880;2022-08-19T13:34:03;7.18;;;5.40;;
55710;SDS011;41612;51.994;5.880;2022-08-19T13:36:30;5.65;;;4.68;;
55710;SDS011;41612;51.994;5.880;2022-08-19T13:38:57;12.55;;;10.10;;
55710;SDS011;41612;51.994;5.880;2022-08-19T13:41:23;11.38;;;7.90;;
55710;SDS011;41612;51.994;5.880;2022-08-19T13:43:53;14.07;;;10.23;;
55710;SDS011;41612;51.994;5.880;2022-08-19T13:46:21;9.52;;;8.50;;
55710;SDS011;41612;51.994;5.880;2022-08-19T13:48:47;13.32;;;10.07;;
55710;SDS011;41612;51.994;5.880;2022-08-19T13:51:14;14.88;;;10.90;;
55710;SDS011;41612;51.994;5.880;2022-08-19T13:53:41;12.00;;;10.23;;
55710;SDS011;41612;51.994;5.880;2022-08-19T13:56:11;18.02;;;12.63;;
55710;SDS011;41612;51.994;5.880;2022-08-19T13:58:38;11.98;;;9.18;;
55710;SDS011;41612;51.994;5.880;2022-08-19T14:01:05;7.00;;;6.18;;
55710;SDS011;41612;51.994;5.880;2022-08-19T14:03:31;9.18;;;7.82;;
55710;SDS011;41612;51.994;5.880;2022-08-19T14:05:58;18.15;;;11.23;;
55710;SDS011;41612;51.994;5.880;2022-08-19T14:08:24;18.35;;;14.07;;
55710;SDS011;41612;51.994;5.880;2022-08-19T14:10:52;11.85;;;10.65;;
55710;SDS011;41612;51.994;5.880;2022-08-19T14:13:22;15.52;;;13.20;;
55710;SDS011;41612;51.994;5.880;2022-08-19T14:16:00;10.35;;;8.13;;
55710;SDS011;41612;51.994;5.880;2022-08-19T14:18:32;17.95;;;14.32;;
55710;SDS011;41612;51.994;5.880;2022-08-19T14:20:57;15.98;;;12.95;;
55710;SDS011;41612;51.994;5.880;2022-08-19T14:23:23;11.75;;;10.57;;
55710;SDS011;41612;51.994;5.880;2022-08-19T14:25:49;9.82;;;8.13;;
55710;SDS011;41612;51.994;5.880;2022-08-19T14:28:14;12.32;;;8.77;;
55710;SDS011;41612;51.994;5.880;2022-08-19T14:30:47;12.95;;;9.63;;
55710;SDS011;41612;51.994;5.880;2022-08-19T14:33:13;10.50;;;9.13;;
55710;SDS011;41612;51.994;5.880;2022-08-19T14:35:39;12.80;;;10.52;;
55710;SDS011;41612;51.994;5.880;2022-08-19T14:38:14;13.27;;;11.73;;
55710;SDS011;41612;51.994;5.880;2022-08-19T14:40:42;19.17;;;15.20;;
55710;SDS011;41612;51.994;5.880;2022-08-19T14:43:08;12.48;;;9.18;;
55710;SDS011;41612;51.994;5.880;2022-08-19T14:45:43;15.43;;;12.80;;
55710;SDS011;41612;51.994;5.880;2022-08-19T14:48:12;11.60;;;10.02;;
55710;SDS011;41612;51.994;5.880;2022-08-19T14:50:38;18.40;;;15.98;;
55710;SDS011;41612;51.994;5.880;2022-08-19T14:53:05;14.30;;;11.95;;
55710;SDS011;41612;51.994;5.880;2022-08-19T14:55:32;15.27;;;12.68;;
55710;SDS011;41612;51.994;5.880;2022-08-19T14:57:59;10.38;;;9.27;;
55710;SDS011;41612;51.994;5.880;2022-08-19T15:00:31;13.88;;;10.05;;
55710;SDS011;41612;51.994;5.880;2022-08-19T15:02:57;7.80;;;6.95;;